^^
Station Historical Data
Daily Summary for June 2, 2017 Units:  English    Metric   Both
« Previous Day
Next Day »
Daily Weekly Monthly Yearly Custom
  High: Low: Average:
Temperature: 76.0 °F 49.0 °F 64.5 °F
Dew Point: 50.6 °F 41.9 °F 46.3 °F
Humidity: 91% 33% 55%
Wind Speed: 8.0mph 0.0mph 1.9mph
Wind Gust: 17.0mph - -
Wind- - South
Pressure: 30.00 in 29.89 in -
Precipitation: 0.00 in    
Historical Graphs
 
 
Tabular Data for June 2, 2017
Time Temperature Dew Point Pressure Wind Wind Speed Wind Gust Humidity Rainfall Rate (Hourly) Conditions
00:00 65.2 °F 50.1 °F 29.95 in SE 1.0 mph 8.0 mph 58% 0.00 in RA
00:15 64.3 °F 49.2 °F 29.96 in NNW 1.0 mph 9.0 mph 58% 0.00 in CLR
00:30 63.7 °F 50.0 °F 29.97 in North 1.0 mph 5.0 mph 61% 0.00 in CLR
00:45 62.4 °F 50.1 °F 29.97 in NW 1.0 mph 4.0 mph 64% 0.00 in CLR
01:00 61.2 °F 49.7 °F 29.97 in NW 2.0 mph 6.0 mph 66% 0.00 in CLR
02:15 57.5 °F 47.8 °F 29.97 in Calm   3.0 mph 70% 0.00 in CLR
02:30 56.3 °F 47.8 °F 29.97 in Calm     73% 0.00 in CLR
02:45 55.5 °F 47.3 °F 29.97 in Calm     74% 0.00 in CLR
03:00 55.6 °F 47.4 °F 29.97 in Calm   1.0 mph 74% 0.00 in CLR
03:15 55.2 °F 47.4 °F 29.98 in Calm     75% 0.00 in CLR
03:30 53.5 °F 46.8 °F 29.98 in Calm     78% 0.00 in CLR
03:45 53.2 °F 47.2 °F 29.98 in Calm     80% 0.00 in CLR
04:00 52.6 °F 46.6 °F 29.99 in Calm     80% 0.00 in CLR
04:15 51.5 °F 47.1 °F 29.99 in Calm     85% 0.00 in CLR
04:30 51.0 °F 47.3 °F 29.98 in Calm     87% 0.00 in CLR
04:45 50.2 °F 46.4 °F 29.98 in Calm     87% 0.00 in CLR
05:00 49.7 °F 46.6 °F 29.98 in Calm     89% 0.00 in CLR
05:15 49.1 °F 45.7 °F 29.98 in Calm     88% 0.00 in CLR
05:45 49.0 °F 46.2 °F 29.99 in Calm     90% 0.00 in CLR
06:00 49.5 °F 47.0 °F 29.99 in Calm     91% 0.00 in CLR
06:15 49.6 °F 46.8 °F 29.99 in Calm     90% 0.00 in CLR
06:30 50.4 °F 47.6 °F 29.99 in Calm     90% 0.00 in CLR
06:45 51.3 °F 47.6 °F 29.99 in Calm     87% 0.00 in CLR
07:00 52.6 °F 47.9 °F 29.99 in Calm     84% 0.00 in CLR
07:15 54.1 °F 48.8 °F 30.00 in Calm   1.0 mph 82% 0.00 in CLR
07:30 55.7 °F 47.9 °F 29.99 in SSW 1.0 mph 4.0 mph 75% 0.00 in CLR
07:45 57.9 °F 47.8 °F 29.99 in South 2.0 mph 5.0 mph 69% 0.00 in CLR
08:00 60.1 °F 48.3 °F 30.00 in South 1.0 mph 6.0 mph 65% 0.00 in CLR
08:15 61.0 °F 48.7 °F 30.00 in Calm   5.0 mph 64% 0.00 in CLR
08:30 62.1 °F 47.6 °F 29.99 in SW 1.0 mph 4.0 mph 59% 0.00 in CLR
09:00 63.8 °F 50.6 °F 30.00 in WSW 2.0 mph 4.0 mph 62% 0.00 in CLR
09:15 63.5 °F 49.8 °F 29.99 in Calm   6.0 mph 61% 0.00 in CLR
09:30 63.9 °F 49.3 °F 29.99 in WSW 3.0 mph 6.0 mph 59% 0.00 in CLR
09:45 64.8 °F 50.1 °F 29.99 in SW 2.0 mph 7.0 mph 59% 0.00 in CLR
10:00 65.5 °F 49.4 °F 29.99 in SW 3.0 mph 8.0 mph 56% 0.00 in CLR
10:15 66.7 °F 46.9 °F 29.98 in SSW 3.0 mph 9.0 mph 49% 0.00 in FEW
10:30 67.6 °F 47.2 °F 29.97 in SSW 3.0 mph 9.0 mph 48% 0.00 in FEW
10:45 68.7 °F 46.5 °F 29.97 in SSW 3.0 mph 12.0 mph 45% 0.00 in FEW
11:00 69.7 °F 46.8 °F 29.97 in WSW 2.0 mph 10.0 mph 44% 0.00 in FEW
11:15 70.5 °F 46.9 °F 29.96 in SW 3.0 mph 8.0 mph 43% 0.00 in FEW
11:30 71.0 °F 46.1 °F 29.96 in South 5.0 mph 13.0 mph 41% 0.00 in FEW
11:45 72.0 °F 47.0 °F 29.95 in SW 5.0 mph 12.0 mph 41% 0.00 in FEW
12:00 71.9 °F 46.3 °F 29.94 in SSW 6.0 mph 16.0 mph 40% 0.00 in FEW
12:15 71.6 °F 47.3 °F 29.93 in South 2.0 mph 14.0 mph 42% 0.00 in SCT
12:30 70.7 °F 47.1 °F 29.93 in WSW 2.0 mph 7.0 mph 43% 0.00 in SCT
12:45 73.4 °F 46.2 °F 29.92 in SW 3.0 mph 13.0 mph 38% 0.00 in SCT
13:00 73.0 °F 46.6 °F 29.92 in West 2.0 mph 13.0 mph 39% 0.00 in SCT
13:15 72.6 °F 44.1 °F 29.91 in SW 8.0 mph 14.0 mph 36% 0.00 in BKN
13:30 73.4 °F 46.2 °F 29.90 in SW 7.0 mph 17.0 mph 38% 0.00 in BKN
13:45 72.9 °F 45.1 °F 29.90 in WSW 8.0 mph 13.0 mph 37% 0.00 in BKN
14:00 74.9 °F 46.9 °F 29.90 in SW 6.0 mph 14.0 mph 37% 0.00 in BKN
14:15 75.4 °F 45.9 °F 29.89 in West 6.0 mph 14.0 mph 35% 0.00 in BKN
14:30 76.0 °F 47.8 °F 29.89 in West 2.0 mph 13.0 mph 37% 0.00 in BKN
14:45 74.4 °F 45.0 °F 29.89 in WSW 2.0 mph 12.0 mph 35% 0.00 in BKN
15:00 71.8 °F 48.7 °F 29.90 in NW 1.0 mph 6.0 mph 44% 0.00 in BKN
15:15 72.0 °F 45.7 °F 29.89 in NNW 2.0 mph 13.0 mph 39% 0.00 in BKN
15:30 74.4 °F 47.8 °F 29.89 in NNE 2.0 mph 8.0 mph 39% 0.00 in BKN
15:45 73.1 °F 47.3 °F 29.89 in South 1.0 mph 7.0 mph 40% 0.00 in BKN
16:00 72.4 °F 45.3 °F 29.89 in ESE 1.0 mph 6.0 mph 38% 0.00 in BKN
16:15 74.7 °F 43.7 °F 29.89 in WNW 3.0 mph 12.0 mph 33% 0.00 in BKN
16:30 74.3 °F 43.3 °F 29.89 in WSW 3.0 mph 12.0 mph 33% 0.00 in BKN
16:45 74.3 °F 43.3 °F 29.89 in WSW 2.0 mph 13.0 mph 33% 0.00 in BKN
17:00 72.7 °F 43.5 °F 29.89 in East 1.0 mph 14.0 mph 35% 0.00 in BKN
17:15 73.6 °F 45.0 °F 29.89 in NNE 3.0 mph 12.0 mph 36% 0.00 in SCT
17:30 73.3 °F 44.8 °F 29.89 in NW 5.0 mph 10.0 mph 36% 0.00 in SCT
17:45 73.0 °F 44.4 °F 29.89 in WNW 2.0 mph 12.0 mph 36% 0.00 in SCT
18:00 72.8 °F 44.3 °F 29.90 in NNE 5.0 mph 10.0 mph 36% 0.00 in SCT
18:15 71.8 °F 44.8 °F 29.90 in NW 2.0 mph 14.0 mph 38% 0.00 in FEW
18:30 71.5 °F 44.5 °F 29.90 in NE 5.0 mph 13.0 mph 38% 0.00 in FEW
18:45 70.8 °F 44.6 °F 29.91 in NW 3.0 mph 12.0 mph 39% 0.00 in FEW
19:00 70.7 °F 44.5 °F 29.91 in WNW 3.0 mph 9.0 mph 39% 0.00 in FEW
19:15 70.3 °F 44.8 °F 29.92 in NNE 3.0 mph 12.0 mph 40% 0.00 in FEW
19:30 68.9 °F 44.9 °F 29.92 in North 3.0 mph 12.0 mph 42% 0.00 in FEW
19:45 68.3 °F 45.5 °F 29.93 in North 3.0 mph 14.0 mph 44% 0.00 in FEW
20:00 67.3 °F 44.6 °F 29.93 in NNE 1.0 mph 5.0 mph 44% 0.00 in FEW
20:15 66.4 °F 43.8 °F 29.93 in NE 1.0 mph 10.0 mph 44% 0.00 in CLR
20:30 65.5 °F 45.3 °F 29.94 in North 2.0 mph 8.0 mph 48% 0.00 in CLR
20:45 64.8 °F 44.6 °F 29.94 in Calm   6.0 mph 48% 0.00 in CLR
21:00 64.1 °F 44.5 °F 29.94 in Calm   3.0 mph 49% 0.00 in CLR
21:15 63.3 °F 43.8 °F 29.95 in Calm   3.0 mph 49% 0.00 in CLR
21:30 63.0 °F 43.0 °F 29.96 in North 2.0 mph 6.0 mph 48% 0.00 in CLR
21:45 62.4 °F 44.1 °F 29.97 in Calm   4.0 mph 51% 0.00 in CLR
22:00 62.0 °F 44.7 °F 29.97 in NNE 1.0 mph 4.0 mph 53% 0.00 in CLR
22:15 61.6 °F 44.3 °F 29.98 in North 1.0 mph 5.0 mph 53% 0.00 in CLR
22:30 61.3 °F 44.0 °F 29.98 in North 2.0 mph 8.0 mph 53% 0.00 in CLR
22:45 62.0 °F 43.1 °F 29.98 in North 2.0 mph 8.0 mph 50% 0.00 in CLR
23:00 61.8 °F 43.4 °F 29.98 in NNE 2.0 mph 8.0 mph 51% 0.00 in CLR
23:15 61.4 °F 42.1 °F 29.98 in North 1.0 mph 12.0 mph 49% 0.00 in CLR
23:30 60.8 °F 42.5 °F 29.98 in NNE 1.0 mph 4.0 mph 51% 0.00 in CLR
23:45 60.1 °F 41.9 °F 29.98 in Calm   4.0 mph 51% 0.00 in CLR
TarryTown NY Weather
Compliments of Weather Underground - 1.5 mb